sensor_id;sensor_type;location;lat;lon;timestamp;P1;durP1;ratioP1;P2;durP2;ratioP2
41043;SDS011;51680;49.806;18.774;2024-01-11T00:00:28;30.33;;;13.80;;
41043;SDS011;51680;49.806;18.774;2024-01-11T00:03:30;34.25;;;13.82;;
41043;SDS011;51680;49.806;18.774;2024-01-11T00:06:39;31.92;;;14.05;;
41043;SDS011;51680;49.806;18.774;2024-01-11T00:09:45;30.50;;;12.43;;
41043;SDS011;51680;49.806;18.774;2024-01-11T00:12:49;25.88;;;12.07;;
41043;SDS011;51680;49.806;18.774;2024-01-11T00:15:53;28.05;;;11.40;;
41043;SDS011;51680;49.806;18.774;2024-01-11T00:18:56;26.85;;;11.43;;
41043;SDS011;51680;49.806;18.774;2024-01-11T00:21:58;30.10;;;12.35;;
41043;SDS011;51680;49.806;18.774;2024-01-11T00:25:03;29.25;;;12.75;;
41043;SDS011;51680;49.806;18.774;2024-01-11T00:28:13;27.50;;;11.80;;
41043;SDS011;51680;49.806;18.774;2024-01-11T00:31:16;33.50;;;13.50;;
41043;SDS011;51680;49.806;18.774;2024-01-11T00:34:18;29.92;;;10.90;;
41043;SDS011;51680;49.806;18.774;2024-01-11T00:37:20;35.55;;;13.63;;
41043;SDS011;51680;49.806;18.774;2024-01-11T00:40:22;28.52;;;12.75;;
41043;SDS011;51680;49.806;18.774;2024-01-11T00:43:25;31.98;;;12.48;;
41043;SDS011;51680;49.806;18.774;2024-01-11T00:49:28;30.35;;;11.15;;
41043;SDS011;51680;49.806;18.774;2024-01-11T00:52:30;24.13;;;10.43;;
41043;SDS011;51680;49.806;18.774;2024-01-11T00:55:32;28.05;;;10.15;;
41043;SDS011;51680;49.806;18.774;2024-01-11T00:58:35;25.15;;;9.35;;
41043;SDS011;51680;49.806;18.774;2024-01-11T01:01:37;20.88;;;7.90;;
41043;SDS011;51680;49.806;18.774;2024-01-11T01:04:39;22.33;;;8.43;;
41043;SDS011;51680;49.806;18.774;2024-01-11T01:07:41;14.63;;;6.57;;
41043;SDS011;51680;49.806;18.774;2024-01-11T01:10:43;20.35;;;7.32;;
41043;SDS011;51680;49.806;18.774;2024-01-11T01:13:46;17.27;;;7.35;;
41043;SDS011;51680;49.806;18.774;2024-01-11T01:16:48;17.33;;;7.40;;
41043;SDS011;51680;49.806;18.774;2024-01-11T01:19:49;21.50;;;8.32;;
41043;SDS011;51680;49.806;18.774;2024-01-11T01:22:51;22.00;;;9.27;;
41043;SDS011;51680;49.806;18.774;2024-01-11T01:25:53;22.00;;;9.18;;
41043;SDS011;51680;49.806;18.774;2024-01-11T01:28:56;21.90;;;9.32;;
41043;SDS011;51680;49.806;18.774;2024-01-11T01:31:58;24.25;;;10.27;;
41043;SDS011;51680;49.806;18.774;2024-01-11T01:35:00;26.85;;;10.27;;
41043;SDS011;51680;49.806;18.774;2024-01-11T01:38:02;22.27;;;9.07;;
41043;SDS011;51680;49.806;18.774;2024-01-11T01:41:04;28.25;;;10.63;;
41043;SDS011;51680;49.806;18.774;2024-01-11T01:44:08;22.77;;;8.48;;
41043;SDS011;51680;49.806;18.774;2024-01-11T01:47:10;18.95;;;7.97;;
41043;SDS011;51680;49.806;18.774;2024-01-11T01:50:12;20.67;;;8.93;;
41043;SDS011;51680;49.806;18.774;2024-01-11T01:53:15;16.08;;;7.00;;
41043;SDS011;51680;49.806;18.774;2024-01-11T01:56:17;14.82;;;6.30;;
41043;SDS011;51680;49.806;18.774;2024-01-11T01:59:22;14.98;;;6.78;;
41043;SDS011;51680;49.806;18.774;2024-01-11T02:02:25;15.18;;;6.78;;
41043;SDS011;51680;49.806;18.774;2024-01-11T02:05:28;16.08;;;6.90;;
41043;SDS011;51680;49.806;18.774;2024-01-11T02:08:31;13.43;;;4.82;;
41043;SDS011;51680;49.806;18.774;2024-01-11T02:11:34;12.95;;;5.90;;
41043;SDS011;51680;49.806;18.774;2024-01-11T02:14:38;10.80;;;4.78;;
41043;SDS011;51680;49.806;18.774;2024-01-11T02:17:40;10.57;;;4.50;;
41043;SDS011;51680;49.806;18.774;2024-01-11T02:20:42;10.40;;;4.38;;
41043;SDS011;51680;49.806;18.774;2024-01-11T02:26:58;13.82;;;5.18;;
41043;SDS011;51680;49.806;18.774;2024-01-11T02:30:01;12.80;;;5.72;;
41043;SDS011;51680;49.806;18.774;2024-01-11T02:33:03;12.65;;;5.57;;
41043;SDS011;51680;49.806;18.774;2024-01-11T02:39:09;21.50;;;8.25;;
41043;SDS011;51680;49.806;18.774;2024-01-11T02:42:12;14.50;;;5.68;;
41043;SDS011;51680;49.806;18.774;2024-01-11T02:45:14;18.50;;;7.18;;
41043;SDS011;51680;49.806;18.774;2024-01-11T02:48:16;22.17;;;7.97;;
41043;SDS011;51680;49.806;18.774;2024-01-11T02:51:17;23.20;;;8.82;;
41043;SDS011;51680;49.806;18.774;2024-01-11T02:54:21;20.77;;;8.07;;
41043;SDS011;51680;49.806;18.774;2024-01-11T02:57:22;20.45;;;8.02;;
41043;SDS011;51680;49.806;18.774;2024-01-11T03:00:24;19.90;;;7.68;;
41043;SDS011;51680;49.806;18.774;2024-01-11T03:03:26;17.27;;;6.68;;
41043;SDS011;51680;49.806;18.774;2024-01-11T03:06:28;18.23;;;8.20;;
41043;SDS011;51680;49.806;18.774;2024-01-11T03:09:31;14.45;;;6.80;;
41043;SDS011;51680;49.806;18.774;2024-01-11T03:12:34;11.43;;;5.40;;
41043;SDS011;51680;49.806;18.774;2024-01-11T03:15:36;10.75;;;5.65;;
41043;SDS011;51680;49.806;18.774;2024-01-11T03:18:38;12.50;;;5.97;;
41043;SDS011;51680;49.806;18.774;2024-01-11T03:21:41;12.02;;;5.75;;
41043;SDS011;51680;49.806;18.774;2024-01-11T03:24:45;14.85;;;6.53;;
41043;SDS011;51680;49.806;18.774;2024-01-11T03:27:46;14.20;;;6.50;;
41043;SDS011;51680;49.806;18.774;2024-01-11T03:30:48;16.60;;;7.53;;
41043;SDS011;51680;49.806;18.774;2024-01-11T03:33:50;15.68;;;7.03;;
41043;SDS011;51680;49.806;18.774;2024-01-11T03:36:52;11.27;;;5.65;;
41043;SDS011;51680;49.806;18.774;2024-01-11T03:39:55;14.95;;;7.70;;
41043;SDS011;51680;49.806;18.774;2024-01-11T03:45:59;16.83;;;7.15;;
41043;SDS011;51680;49.806;18.774;2024-01-11T03:49:01;17.92;;;8.27;;
41043;SDS011;51680;49.806;18.774;2024-01-11T03:52:03;15.57;;;7.57;;
41043;SDS011;51680;49.806;18.774;2024-01-11T03:55:07;14.65;;;6.88;;
41043;SDS011;51680;49.806;18.774;2024-01-11T03:58:09;11.98;;;5.95;;
41043;SDS011;51680;49.806;18.774;2024-01-11T04:01:11;13.52;;;6.25;;
41043;SDS011;51680;49.806;18.774;2024-01-11T04:04:13;14.93;;;6.93;;
41043;SDS011;51680;49.806;18.774;2024-01-11T04:07:15;13.98;;;6.18;;
41043;SDS011;51680;49.806;18.774;2024-01-11T04:10:18;13.40;;;5.85;;
41043;SDS011;51680;49.806;18.774;2024-01-11T04:13:20;13.05;;;5.90;;
41043;SDS011;51680;49.806;18.774;2024-01-11T04:16:22;14.25;;;6.10;;
41043;SDS011;51680;49.806;18.774;2024-01-11T04:19:24;15.50;;;6.20;;
41043;SDS011;51680;49.806;18.774;2024-01-11T04:22:27;16.70;;;6.80;;
41043;SDS011;51680;49.806;18.774;2024-01-11T04:25:31;15.50;;;6.82;;
41043;SDS011;51680;49.806;18.774;2024-01-11T04:28:33;14.05;;;6.75;;
41043;SDS011;51680;49.806;18.774;2024-01-11T04:31:34;12.45;;;6.40;;
41043;SDS011;51680;49.806;18.774;2024-01-11T04:34:36;16.17;;;7.05;;
41043;SDS011;51680;49.806;18.774;2024-01-11T04:37:38;15.32;;;6.22;;
41043;SDS011;51680;49.806;18.774;2024-01-11T04:40:41;14.75;;;6.57;;
41043;SDS011;51680;49.806;18.774;2024-01-11T04:43:43;14.00;;;6.53;;
41043;SDS011;51680;49.806;18.774;2024-01-11T04:46:46;15.13;;;6.18;;
41043;SDS011;51680;49.806;18.774;2024-01-11T04:49:47;13.25;;;6.63;;
41043;SDS011;51680;49.806;18.774;2024-01-11T04:52:49;14.88;;;6.80;;
41043;SDS011;51680;49.806;18.774;2024-01-11T04:55:52;14.32;;;6.50;;
41043;SDS011;51680;49.806;18.774;2024-01-11T04:58:54;14.70;;;6.55;;
41043;SDS011;51680;49.806;18.774;2024-01-11T05:01:56;13.75;;;6.63;;
41043;SDS011;51680;49.806;18.774;2024-01-11T05:04:58;15.45;;;6.78;;
41043;SDS011;51680;49.806;18.774;2024-01-11T05:08:00;16.88;;;7.40;;
41043;SDS011;51680;49.806;18.774;2024-01-11T05:11:04;14.80;;;6.60;;
41043;SDS011;51680;49.806;18.774;2024-01-11T05:14:05;16.08;;;6.90;;
41043;SDS011;51680;49.806;18.774;2024-01-11T05:17:07;15.77;;;8.05;;
41043;SDS011;51680;49.806;18.774;2024-01-11T05:20:09;21.05;;;8.23;;
41043;SDS011;51680;49.806;18.774;2024-01-11T05:23:12;20.90;;;8.93;;
41043;SDS011;51680;49.806;18.774;2024-01-11T05:26:15;18.77;;;7.57;;
41043;SDS011;51680;49.806;18.774;2024-01-11T05:29:18;20.85;;;8.73;;
41043;SDS011;51680;49.806;18.774;2024-01-11T05:32:20;19.08;;;7.82;;
41043;SDS011;51680;49.806;18.774;2024-01-11T05:35:21;21.95;;;7.35;;
41043;SDS011;51680;49.806;18.774;2024-01-11T05:38:24;21.77;;;9.23;;
41043;SDS011;51680;49.806;18.774;2024-01-11T05:41:27;18.55;;;8.63;;
41043;SDS011;51680;49.806;18.774;2024-01-11T05:44:29;19.35;;;9.00;;
41043;SDS011;51680;49.806;18.774;2024-01-11T05:47:32;30.08;;;11.32;;
41043;SDS011;51680;49.806;18.774;2024-01-11T05:50:34;41.15;;;20.10;;
41043;SDS011;51680;49.806;18.774;2024-01-11T05:53:36;34.13;;;18.38;;
41043;SDS011;51680;49.806;18.774;2024-01-11T05:56:39;87.00;;;50.42;;
41043;SDS011;51680;49.806;18.774;2024-01-11T05:59:43;35.55;;;19.25;;
41043;SDS011;51680;49.806;18.774;2024-01-11T06:02:45;24.33;;;12.00;;
41043;SDS011;51680;49.806;18.774;2024-01-11T06:05:50;23.88;;;10.82;;
41043;SDS011;51680;49.806;18.774;2024-01-11T06:08:54;18.50;;;7.75;;
41043;SDS011;51680;49.806;18.774;2024-01-11T06:12:00;20.00;;;7.95;;
41043;SDS011;51680;49.806;18.774;2024-01-11T06:15:04;17.80;;;7.28;;
41043;SDS011;51680;49.806;18.774;2024-01-11T06:18:08;22.77;;;9.13;;
41043;SDS011;51680;49.806;18.774;2024-01-11T06:21:10;21.40;;;9.43;;
41043;SDS011;51680;49.806;18.774;2024-01-11T06:24:15;24.75;;;10.13;;
41043;SDS011;51680;49.806;18.774;2024-01-11T06:27:22;30.33;;;11.90;;
41043;SDS011;51680;49.806;18.774;2024-01-11T06:30:24;31.67;;;13.05;;
41043;SDS011;51680;49.806;18.774;2024-01-11T06:33:28;28.35;;;11.43;;
41043;SDS011;51680;49.806;18.774;2024-01-11T06:36:30;22.08;;;9.93;;
41043;SDS011;51680;49.806;18.774;2024-01-11T06:39:34;23.10;;;9.95;;
41043;SDS011;51680;49.806;18.774;2024-01-11T06:42:38;23.42;;;10.50;;
41043;SDS011;51680;49.806;18.774;2024-01-11T06:45:40;77.28;;;25.45;;
41043;SDS011;51680;49.806;18.774;2024-01-11T06:48:45;140.57;;;44.15;;
41043;SDS011;51680;49.806;18.774;2024-01-11T06:51:49;73.53;;;32.33;;
41043;SDS011;51680;49.806;18.774;2024-01-11T06:54:55;19.35;;;9.13;;
41043;SDS011;51680;49.806;18.774;2024-01-11T06:58:00;22.75;;;9.18;;
41043;SDS011;51680;49.806;18.774;2024-01-11T07:01:04;19.45;;;7.82;;
41043;SDS011;51680;49.806;18.774;2024-01-11T07:04:06;19.85;;;9.40;;
41043;SDS011;51680;49.806;18.774;2024-01-11T07:07:10;20.30;;;9.00;;
41043;SDS011;51680;49.806;18.774;2024-01-11T07:10:14;35.25;;;19.30;;
41043;SDS011;51680;49.806;18.774;2024-01-11T07:13:24;35.38;;;18.58;;
41043;SDS011;51680;49.806;18.774;2024-01-11T07:16:26;24.13;;;11.25;;
41043;SDS011;51680;49.806;18.774;2024-01-11T07:19:28;80.38;;;52.75;;
41043;SDS011;51680;49.806;18.774;2024-01-11T07:22:30;48.78;;;28.52;;
41043;SDS011;51680;49.806;18.774;2024-01-11T07:25:33;42.13;;;23.58;;
41043;SDS011;51680;49.806;18.774;2024-01-11T07:28:39;114.30;;;63.80;;
41043;SDS011;51680;49.806;18.774;2024-01-11T07:31:41;58.90;;;32.13;;
41043;SDS011;51680;49.806;18.774;2024-01-11T07:34:45;87.90;;;49.08;;
41043;SDS011;51680;49.806;18.774;2024-01-11T07:37:49;53.72;;;24.75;;
41043;SDS011;51680;49.806;18.774;2024-01-11T07:40:51;36.38;;;16.08;;
41043;SDS011;51680;49.806;18.774;2024-01-11T07:44:05;40.72;;;20.55;;
41043;SDS011;51680;49.806;18.774;2024-01-11T07:47:09;32.97;;;16.55;;
41043;SDS011;51680;49.806;18.774;2024-01-11T07:50:11;38.60;;;18.17;;
41043;SDS011;51680;49.806;18.774;2024-01-11T07:53:13;36.47;;;18.38;;
41043;SDS011;51680;49.806;18.774;2024-01-11T07:56:15;34.83;;;16.45;;
41043;SDS011;51680;49.806;18.774;2024-01-11T07:59:18;48.67;;;26.65;;
41043;SDS011;51680;49.806;18.774;2024-01-11T08:02:20;62.08;;;35.15;;
41043;SDS011;51680;49.806;18.774;2024-01-11T08:05:23;50.55;;;25.23;;
41043;SDS011;51680;49.806;18.774;2024-01-11T08:08:25;33.35;;;18.52;;
41043;SDS011;51680;49.806;18.774;2024-01-11T08:11:28;40.25;;;20.85;;
41043;SDS011;51680;49.806;18.774;2024-01-11T08:14:32;37.65;;;20.77;;
41043;SDS011;51680;49.806;18.774;2024-01-11T08:17:34;56.30;;;28.02;;
41043;SDS011;51680;49.806;18.774;2024-01-11T08:20:36;61.53;;;32.42;;
41043;SDS011;51680;49.806;18.774;2024-01-11T08:23:39;22.83;;;13.40;;
41043;SDS011;51680;49.806;18.774;2024-01-11T08:26:44;62.65;;;32.20;;
41043;SDS011;51680;49.806;18.774;2024-01-11T08:29:48;54.00;;;27.35;;
41043;SDS011;51680;49.806;18.774;2024-01-11T08:32:50;49.63;;;30.42;;
41043;SDS011;51680;49.806;18.774;2024-01-11T08:40:36;31.52;;;18.48;;
41043;SDS011;51680;49.806;18.774;2024-01-11T08:43:39;27.13;;;16.20;;
41043;SDS011;51680;49.806;18.774;2024-01-11T08:46:42;29.55;;;15.98;;
41043;SDS011;51680;49.806;18.774;2024-01-11T08:49:45;21.13;;;11.05;;
41043;SDS011;51680;49.806;18.774;2024-01-11T08:52:49;17.70;;;9.85;;
41043;SDS011;51680;49.806;18.774;2024-01-11T08:55:51;29.42;;;15.13;;
41043;SDS011;51680;49.806;18.774;2024-01-11T08:58:54;55.95;;;24.23;;
41043;SDS011;51680;49.806;18.774;2024-01-11T09:01:57;54.58;;;22.85;;
41043;SDS011;51680;49.806;18.774;2024-01-11T09:04:59;51.13;;;22.95;;
41043;SDS011;51680;49.806;18.774;2024-01-11T09:08:10;49.72;;;24.45;;
41043;SDS011;51680;49.806;18.774;2024-01-11T09:11:12;43.45;;;21.85;;
41043;SDS011;51680;49.806;18.774;2024-01-11T09:14:15;50.63;;;26.38;;
41043;SDS011;51680;49.806;18.774;2024-01-11T09:17:18;47.10;;;22.27;;
41043;SDS011;51680;49.806;18.774;2024-01-11T09:20:21;57.03;;;30.33;;
41043;SDS011;51680;49.806;18.774;2024-01-11T09:23:23;44.40;;;21.20;;
41043;SDS011;51680;49.806;18.774;2024-01-11T09:26:25;47.25;;;21.73;;
41043;SDS011;51680;49.806;18.774;2024-01-11T09:29:27;48.35;;;23.70;;
41043;SDS011;51680;49.806;18.774;2024-01-11T09:32:31;39.72;;;18.20;;
41043;SDS011;51680;49.806;18.774;2024-01-11T09:35:33;38.30;;;16.20;;
41043;SDS011;51680;49.806;18.774;2024-01-11T09:38:35;32.55;;;17.20;;
41043;SDS011;51680;49.806;18.774;2024-01-11T09:41:38;32.88;;;15.45;;
41043;SDS011;51680;49.806;18.774;2024-01-11T09:44:44;29.52;;;14.57;;
41043;SDS011;51680;49.806;18.774;2024-01-11T09:47:48;26.43;;;14.07;;
41043;SDS011;51680;49.806;18.774;2024-01-11T09:50:53;23.95;;;10.68;;
41043;SDS011;51680;49.806;18.774;2024-01-11T09:53:59;20.80;;;9.48;;
41043;SDS011;51680;49.806;18.774;2024-01-11T09:57:04;14.02;;;7.43;;
41043;SDS011;51680;49.806;18.774;2024-01-11T10:00:09;16.02;;;8.93;;
41043;SDS011;51680;49.806;18.774;2024-01-11T10:03:21;18.40;;;8.60;;
41043;SDS011;51680;49.806;18.774;2024-01-11T10:06:30;16.33;;;7.40;;
41043;SDS011;51680;49.806;18.774;2024-01-11T10:09:40;17.27;;;8.07;;
41043;SDS011;51680;49.806;18.774;2024-01-11T10:12:44;14.40;;;7.38;;
41043;SDS011;51680;49.806;18.774;2024-01-11T10:15:46;18.30;;;9.00;;
41043;SDS011;51680;49.806;18.774;2024-01-11T10:18:51;16.52;;;8.55;;
41043;SDS011;51680;49.806;18.774;2024-01-11T10:21:55;14.48;;;7.10;;
41043;SDS011;51680;49.806;18.774;2024-01-11T10:25:07;32.08;;;14.63;;
41043;SDS011;51680;49.806;18.774;2024-01-11T10:28:12;30.92;;;15.25;;
41043;SDS011;51680;49.806;18.774;2024-01-11T10:31:15;55.00;;;26.98;;
41043;SDS011;51680;49.806;18.774;2024-01-11T10:34:18;56.47;;;28.23;;
41043;SDS011;51680;49.806;18.774;2024-01-11T10:37:21;37.03;;;19.10;;
41043;SDS011;51680;49.806;18.774;2024-01-11T10:40:24;34.65;;;14.85;;
41043;SDS011;51680;49.806;18.774;2024-01-11T10:43:26;31.98;;;13.73;;
41043;SDS011;51680;49.806;18.774;2024-01-11T10:46:32;28.63;;;12.63;;
41043;SDS011;51680;49.806;18.774;2024-01-11T10:49:39;30.98;;;13.40;;
41043;SDS011;51680;49.806;18.774;2024-01-11T10:52:45;31.92;;;13.70;;
41043;SDS011;51680;49.806;18.774;2024-01-11T10:56:01;31.42;;;13.50;;
41043;SDS011;51680;49.806;18.774;2024-01-11T10:59:07;26.98;;;11.73;;
41043;SDS011;51680;49.806;18.774;2024-01-11T11:02:10;27.27;;;13.05;;
41043;SDS011;51680;49.806;18.774;2024-01-11T11:05:17;29.52;;;12.63;;
41043;SDS011;51680;49.806;18.774;2024-01-11T11:08:22;28.52;;;12.95;;
41043;SDS011;51680;49.806;18.774;2024-01-11T11:11:25;30.05;;;13.85;;
41043;SDS011;51680;49.806;18.774;2024-01-11T11:14:27;29.88;;;14.27;;
41043;SDS011;51680;49.806;18.774;2024-01-11T11:17:48;34.00;;;14.15;;
41043;SDS011;51680;49.806;18.774;2024-01-11T11:20:54;34.60;;;14.98;;
41043;SDS011;51680;49.806;18.774;2024-01-11T11:23:56;37.08;;;14.30;;
41043;SDS011;51680;49.806;18.774;2024-01-11T11:26:59;36.10;;;16.85;;
41043;SDS011;51680;49.806;18.774;2024-01-11T11:30:00;37.13;;;17.92;;
41043;SDS011;51680;49.806;18.774;2024-01-11T11:33:08;46.28;;;21.60;;
41043;SDS011;51680;49.806;18.774;2024-01-11T11:36:13;43.92;;;20.88;;
41043;SDS011;51680;49.806;18.774;2024-01-11T11:39:18;35.30;;;17.33;;
41043;SDS011;51680;49.806;18.774;2024-01-11T11:42:21;43.03;;;19.33;;
41043;SDS011;51680;49.806;18.774;2024-01-11T11:45:25;35.60;;;17.40;;
41043;SDS011;51680;49.806;18.774;2024-01-11T11:51:54;52.38;;;25.02;;
41043;SDS011;51680;49.806;18.774;2024-01-11T11:54:57;50.85;;;23.85;;
41043;SDS011;51680;49.806;18.774;2024-01-11T11:58:00;52.25;;;24.25;;
41043;SDS011;51680;49.806;18.774;2024-01-11T12:01:02;51.50;;;24.05;;
41043;SDS011;51680;49.806;18.774;2024-01-11T12:04:05;53.53;;;25.35;;
41043;SDS011;51680;49.806;18.774;2024-01-11T12:07:11;66.47;;;27.50;;
41043;SDS011;51680;49.806;18.774;2024-01-11T12:10:13;63.72;;;27.85;;
41043;SDS011;51680;49.806;18.774;2024-01-11T12:13:15;60.85;;;26.55;;
41043;SDS011;51680;49.806;18.774;2024-01-11T12:16:17;62.78;;;27.38;;
41043;SDS011;51680;49.806;18.774;2024-01-11T12:19:19;56.58;;;25.55;;
41043;SDS011;51680;49.806;18.774;2024-01-11T12:22:23;59.22;;;25.58;;
41043;SDS011;51680;49.806;18.774;2024-01-11T12:25:25;58.72;;;27.90;;
41043;SDS011;51680;49.806;18.774;2024-01-11T12:28:27;50.72;;;24.48;;
41043;SDS011;51680;49.806;18.774;2024-01-11T12:31:29;48.83;;;23.58;;
41043;SDS011;51680;49.806;18.774;2024-01-11T12:34:30;42.72;;;18.90;;
41043;SDS011;51680;49.806;18.774;2024-01-11T12:37:34;40.08;;;19.27;;
41043;SDS011;51680;49.806;18.774;2024-01-11T12:40:36;39.45;;;17.02;;
41043;SDS011;51680;49.806;18.774;2024-01-11T12:43:38;35.60;;;17.23;;
41043;SDS011;51680;49.806;18.774;2024-01-11T12:46:40;34.03;;;16.25;;
41043;SDS011;51680;49.806;18.774;2024-01-11T12:49:43;33.08;;;15.73;;
41043;SDS011;51680;49.806;18.774;2024-01-11T12:56:05;103.25;;;45.83;;
41043;SDS011;51680;49.806;18.774;2024-01-11T12:59:10;76.50;;;34.10;;
41043;SDS011;51680;49.806;18.774;2024-01-11T13:02:13;76.73;;;31.17;;
41043;SDS011;51680;49.806;18.774;2024-01-11T13:05:17;67.72;;;27.50;;
41043;SDS011;51680;49.806;18.774;2024-01-11T13:08:20;44.17;;;19.42;;
41043;SDS011;51680;49.806;18.774;2024-01-11T13:11:22;88.43;;;32.05;;
41043;SDS011;51680;49.806;18.774;2024-01-11T13:14:24;51.28;;;22.02;;
41043;SDS011;51680;49.806;18.774;2024-01-11T13:17:27;27.80;;;12.50;;
41043;SDS011;51680;49.806;18.774;2024-01-11T13:20:29;30.17;;;13.45;;
41043;SDS011;51680;49.806;18.774;2024-01-11T13:23:33;39.25;;;18.15;;
41043;SDS011;51680;49.806;18.774;2024-01-11T13:26:34;26.17;;;11.52;;
41043;SDS011;51680;49.806;18.774;2024-01-11T13:29:37;25.17;;;11.27;;
41043;SDS011;51680;49.806;18.774;2024-01-11T13:32:39;38.70;;;16.77;;
41043;SDS011;51680;49.806;18.774;2024-01-11T13:35:41;32.78;;;15.13;;
41043;SDS011;51680;49.806;18.774;2024-01-11T13:38:45;36.03;;;16.00;;
41043;SDS011;51680;49.806;18.774;2024-01-11T13:41:47;33.55;;;15.20;;
41043;SDS011;51680;49.806;18.774;2024-01-11T13:44:48;26.65;;;12.23;;
41043;SDS011;51680;49.806;18.774;2024-01-11T13:47:51;25.85;;;11.88;;
41043;SDS011;51680;49.806;18.774;2024-01-11T13:50:54;43.13;;;21.73;;
41043;SDS011;51680;49.806;18.774;2024-01-11T13:53:57;28.75;;;15.02;;
41043;SDS011;51680;49.806;18.774;2024-01-11T13:57:01;29.92;;;13.32;;
41043;SDS011;51680;49.806;18.774;2024-01-11T14:00:03;34.60;;;17.10;;
41043;SDS011;51680;49.806;18.774;2024-01-11T14:03:06;30.13;;;16.17;;
41043;SDS011;51680;49.806;18.774;2024-01-11T14:06:09;29.23;;;15.77;;
41043;SDS011;51680;49.806;18.774;2024-01-11T14:09:12;20.83;;;10.25;;
41043;SDS011;51680;49.806;18.774;2024-01-11T14:12:14;21.45;;;9.13;;
41043;SDS011;51680;49.806;18.774;2024-01-11T14:15:16;18.88;;;9.35;;
41043;SDS011;51680;49.806;18.774;2024-01-11T14:18:17;23.83;;;10.10;;
41043;SDS011;51680;49.806;18.774;2024-01-11T14:21:20;22.33;;;10.15;;
41043;SDS011;51680;49.806;18.774;2024-01-11T14:24:23;22.15;;;9.88;;
41043;SDS011;51680;49.806;18.774;2024-01-11T14:30:28;18.52;;;8.93;;
41043;SDS011;51680;49.806;18.774;2024-01-11T14:33:30;20.90;;;10.02;;
41043;SDS011;51680;49.806;18.774;2024-01-11T14:36:32;23.27;;;10.45;;
41043;SDS011;51680;49.806;18.774;2024-01-11T14:39:35;21.02;;;10.70;;
41043;SDS011;51680;49.806;18.774;2024-01-11T14:42:37;27.70;;;11.18;;
41043;SDS011;51680;49.806;18.774;2024-01-11T14:45:39;23.35;;;10.15;;
41043;SDS011;51680;49.806;18.774;2024-01-11T14:48:41;19.45;;;10.15;;
41043;SDS011;51680;49.806;18.774;2024-01-11T14:51:43;25.73;;;11.40;;
41043;SDS011;51680;49.806;18.774;2024-01-11T14:54:46;25.92;;;11.35;;
41043;SDS011;51680;49.806;18.774;2024-01-11T14:57:48;25.95;;;11.73;;
41043;SDS011;51680;49.806;18.774;2024-01-11T15:00:50;24.00;;;11.65;;
41043;SDS011;51680;49.806;18.774;2024-01-11T15:03:52;25.27;;;12.27;;
41043;SDS011;51680;49.806;18.774;2024-01-11T15:06:54;27.33;;;12.48;;
41043;SDS011;51680;49.806;18.774;2024-01-11T15:09:57;27.40;;;12.88;;
41043;SDS011;51680;49.806;18.774;2024-01-11T15:12:59;28.52;;;14.00;;
41043;SDS011;51680;49.806;18.774;2024-01-11T15:16:01;29.15;;;14.65;;
41043;SDS011;51680;49.806;18.774;2024-01-11T15:19:03;35.67;;;15.43;;
41043;SDS011;51680;49.806;18.774;2024-01-11T15:22:05;33.17;;;15.07;;
41043;SDS011;51680;49.806;18.774;2024-01-11T15:25:10;40.55;;;18.17;;
41043;SDS011;51680;49.806;18.774;2024-01-11T15:28:12;47.47;;;19.42;;
41043;SDS011;51680;49.806;18.774;2024-01-11T15:31:13;44.88;;;20.33;;
41043;SDS011;51680;49.806;18.774;2024-01-11T15:34:15;43.70;;;18.67;;
41043;SDS011;51680;49.806;18.774;2024-01-11T15:37:17;37.42;;;17.42;;
41043;SDS011;51680;49.806;18.774;2024-01-11T15:40:21;38.28;;;17.15;;
41043;SDS011;51680;49.806;18.774;2024-01-11T15:46:25;43.45;;;19.85;;
41043;SDS011;51680;49.806;18.774;2024-01-11T15:49:27;44.03;;;21.38;;
41043;SDS011;51680;49.806;18.774;2024-01-11T15:52:29;46.10;;;22.30;;
41043;SDS011;51680;49.806;18.774;2024-01-11T15:55:34;40.50;;;20.15;;
41043;SDS011;51680;49.806;18.774;2024-01-11T15:58:35;47.08;;;21.13;;
41043;SDS011;51680;49.806;18.774;2024-01-11T16:01:38;43.85;;;21.23;;
41043;SDS011;51680;49.806;18.774;2024-01-11T16:04:40;44.28;;;20.98;;
41043;SDS011;51680;49.806;18.774;2024-01-11T16:07:44;53.42;;;22.58;;
41043;SDS011;51680;49.806;18.774;2024-01-11T16:10:47;51.38;;;22.88;;
41043;SDS011;51680;49.806;18.774;2024-01-11T16:13:49;57.03;;;25.70;;
41043;SDS011;51680;49.806;18.774;2024-01-11T16:16:51;49.40;;;24.88;;
41043;SDS011;51680;49.806;18.774;2024-01-11T16:19:53;69.60;;;31.73;;
41043;SDS011;51680;49.806;18.774;2024-01-11T16:22:54;57.92;;;28.13;;
41043;SDS011;51680;49.806;18.774;2024-01-11T16:25:58;68.82;;;29.55;;
41043;SDS011;51680;49.806;18.774;2024-01-11T16:32:02;66.05;;;29.77;;
41043;SDS011;51680;49.806;18.774;2024-01-11T16:35:05;73.07;;;30.50;;
41043;SDS011;51680;49.806;18.774;2024-01-11T16:38:07;78.70;;;32.88;;
41043;SDS011;51680;49.806;18.774;2024-01-11T16:41:11;70.60;;;32.75;;
41043;SDS011;51680;49.806;18.774;2024-01-11T16:44:13;76.63;;;34.78;;
41043;SDS011;51680;49.806;18.774;2024-01-11T16:47:15;79.15;;;35.33;;
41043;SDS011;51680;49.806;18.774;2024-01-11T16:50:17;79.90;;;34.60;;
41043;SDS011;51680;49.806;18.774;2024-01-11T16:53:20;104.72;;;39.92;;
41043;SDS011;51680;49.806;18.774;2024-01-11T16:56:23;124.40;;;53.25;;
41043;SDS011;51680;49.806;18.774;2024-01-11T16:59:25;92.82;;;39.40;;
41043;SDS011;51680;49.806;18.774;2024-01-11T17:02:27;83.90;;;34.65;;
41043;SDS011;51680;49.806;18.774;2024-01-11T17:05:30;102.88;;;39.58;;
41043;SDS011;51680;49.806;18.774;2024-01-11T17:08:31;80.95;;;36.22;;
41043;SDS011;51680;49.806;18.774;2024-01-11T17:11:35;87.10;;;38.90;;
41043;SDS011;51680;49.806;18.774;2024-01-11T17:14:40;81.75;;;34.40;;
41043;SDS011;51680;49.806;18.774;2024-01-11T17:17:42;96.82;;;42.13;;
41043;SDS011;51680;49.806;18.774;2024-01-11T17:20:44;99.68;;;43.55;;
41043;SDS011;51680;49.806;18.774;2024-01-11T17:23:46;80.55;;;37.05;;
41043;SDS011;51680;49.806;18.774;2024-01-11T17:26:49;79.43;;;35.67;;
41043;SDS011;51680;49.806;18.774;2024-01-11T17:29:51;69.03;;;31.00;;
41043;SDS011;51680;49.806;18.774;2024-01-11T17:32:53;75.15;;;33.15;;
41043;SDS011;51680;49.806;18.774;2024-01-11T17:35:56;73.35;;;32.50;;
41043;SDS011;51680;49.806;18.774;2024-01-11T17:38:57;78.88;;;36.28;;
41043;SDS011;51680;49.806;18.774;2024-01-11T17:42:01;79.57;;;33.50;;
41043;SDS011;51680;49.806;18.774;2024-01-11T17:45:03;67.18;;;29.75;;
41043;SDS011;51680;49.806;18.774;2024-01-11T17:48:06;66.63;;;29.33;;
41043;SDS011;51680;49.806;18.774;2024-01-11T17:51:09;65.47;;;30.20;;
41043;SDS011;51680;49.806;18.774;2024-01-11T17:54:12;67.43;;;30.20;;
41043;SDS011;51680;49.806;18.774;2024-01-11T17:57:15;59.67;;;28.77;;
41043;SDS011;51680;49.806;18.774;2024-01-11T18:00:17;64.45;;;28.70;;
41043;SDS011;51680;49.806;18.774;2024-01-11T18:03:20;63.42;;;30.02;;
41043;SDS011;51680;49.806;18.774;2024-01-11T18:06:22;62.63;;;29.25;;
41043;SDS011;51680;49.806;18.774;2024-01-11T18:09:23;66.20;;;29.60;;
41043;SDS011;51680;49.806;18.774;2024-01-11T18:12:27;65.38;;;29.80;;